Main page
METAR-TAF:

METAR-TAF

Airports :

Rand Airport

Germiston, South Africa

latitude: 26-14-33S, longitude: 028-09-04E, elevation: 1671 m

Current weather observation

The report was made 17 hours and 42 minutes ago, at 07:00 UTC
Wind 12 kt from the East
Temperature 10°C
Humidity 76%
Pressure 1033 hPa
Visibility 10 km or more
no clouds below 1500 m and no cumulonimbus

METAR: FAGM 230700Z 10012KT CAVOK 10/06 Q1033

Time: 02:42 (00:42 UTC)


TAF: missing

Weather observations and forecasts of more than 4000 airports (METAR and TAF reports).

The available stations are represented by yellow and red dots on the map.

Hover mouse over dot to see the name of the station.

Then click to see weather observations and forecasts.

To change the map : click on the green buttons with a black cross to zoom in, on the green button with a dash to zoom out, or on the green arrows for adjacent maps.


METAR-TAF: